Millville, Iowa
Current Conditions -  °F | °C
As of 3:35 AM on Saturday 25 Oct 2014 (Local Time) from KPDC Reporting Station
Haze Haze  
Wind Chill: 56°   Ceiling: Unl
Heat Index: 56°   Visibility: 2.5mi
Dew Point: 55°   Wind: 0mph
Humidity: 95%   Direction: NA
Pressure: 29.92"   Gusts: NA
Location:  42.743°N, 91.1647°W
Report Text: KPDC 250835Z AUTO 00000KT 2 1/2SM BR CLR 13/13 A2992 RMK AO2 T01330125
Loading
Personal Weather Stations






























Interactive Weather Map
Tropical Storm Tracking
New forecast layout! Learn more

10-Day Weather Forecast

Advertisements
Track Severe Weather on mobile